sensor_id;sensor_type;location;lat;lon;timestamp;P1;durP1;ratioP1;P2;durP2;ratioP2
35380;SDS011;21486;51.916;8.378;2023-09-19T00:33:03;8.85;;;2.83;;
35380;SDS011;21486;51.916;8.378;2023-09-19T00:35:31;11.75;;;2.78;;
35380;SDS011;21486;51.916;8.378;2023-09-19T00:37:58;7.35;;;2.63;;
35380;SDS011;21486;51.916;8.378;2023-09-19T00:40:23;7.70;;;2.70;;
35380;SDS011;21486;51.916;8.378;2023-09-19T00:42:49;7.27;;;3.00;;
35380;SDS011;21486;51.916;8.378;2023-09-19T00:45:16;5.65;;;2.88;;
35380;SDS011;21486;51.916;8.378;2023-09-19T00:47:43;8.83;;;3.33;;
35380;SDS011;21486;51.916;8.378;2023-09-19T00:50:14;7.50;;;3.92;;
35380;SDS011;21486;51.916;8.378;2023-09-19T00:52:42;8.57;;;3.13;;
35380;SDS011;21486;51.916;8.378;2023-09-19T00:55:09;7.55;;;3.63;;
35380;SDS011;21486;51.916;8.378;2023-09-19T00:57:36;7.35;;;3.50;;
35380;SDS011;21486;51.916;8.378;2023-09-19T01:00:03;8.95;;;3.50;;
35380;SDS011;21486;51.916;8.378;2023-09-19T01:02:32;9.95;;;3.83;;
35380;SDS011;21486;51.916;8.378;2023-09-19T01:04:58;7.75;;;3.33;;
35380;SDS011;21486;51.916;8.378;2023-09-19T01:07:25;8.65;;;3.38;;
35380;SDS011;21486;51.916;8.378;2023-09-19T01:09:51;7.33;;;3.50;;
35380;SDS011;21486;51.916;8.378;2023-09-19T01:12:21;8.05;;;3.38;;
35380;SDS011;21486;51.916;8.378;2023-09-19T01:21:04;6.72;;;3.33;;
35380;SDS011;21486;51.916;8.378;2023-09-19T01:23:58;9.27;;;3.33;;
35380;SDS011;21486;51.916;8.378;2023-09-19T01:29:38;9.60;;;4.20;;
35380;SDS011;21486;51.916;8.378;2023-09-19T01:32:09;11.32;;;4.07;;
35380;SDS011;21486;51.916;8.378;2023-09-19T01:37:13;11.95;;;3.90;;
35380;SDS011;21486;51.916;8.378;2023-09-19T01:39:43;10.10;;;4.05;;
35380;SDS011;21486;51.916;8.378;2023-09-19T01:42:21;10.80;;;3.80;;
35380;SDS011;21486;51.916;8.378;2023-09-19T01:44:51;11.30;;;3.55;;
35380;SDS011;21486;51.916;8.378;2023-09-19T01:50:11;8.67;;;3.10;;
35380;SDS011;21486;51.916;8.378;2023-09-19T01:53:04;7.85;;;3.08;;
35380;SDS011;21486;51.916;8.378;2023-09-19T01:55:36;9.85;;;3.08;;
35380;SDS011;21486;51.916;8.378;2023-09-19T01:58:08;8.63;;;2.90;;
35380;SDS011;21486;51.916;8.378;2023-09-19T02:00:44;8.65;;;2.80;;
35380;SDS011;21486;51.916;8.378;2023-09-19T02:03:13;8.80;;;3.17;;
35380;SDS011;21486;51.916;8.378;2023-09-19T02:05:39;9.15;;;3.10;;
35380;SDS011;21486;51.916;8.378;2023-09-19T02:08:05;9.68;;;2.50;;
35380;SDS011;21486;51.916;8.378;2023-09-19T02:10:31;10.93;;;2.80;;
35380;SDS011;21486;51.916;8.378;2023-09-19T02:12:56;10.00;;;2.50;;
35380;SDS011;21486;51.916;8.378;2023-09-19T02:15:22;12.93;;;3.03;;
35380;SDS011;21486;51.916;8.378;2023-09-19T02:17:47;9.03;;;2.57;;
35380;SDS011;21486;51.916;8.378;2023-09-19T02:20:13;8.02;;;2.42;;
35380;SDS011;21486;51.916;8.378;2023-09-19T02:22:42;11.13;;;2.50;;
35380;SDS011;21486;51.916;8.378;2023-09-19T02:25:09;18.73;;;3.00;;
35380;SDS011;21486;51.916;8.378;2023-09-19T02:27:35;15.10;;;2.83;;
35380;SDS011;21486;51.916;8.378;2023-09-19T02:30:02;11.02;;;2.17;;
35380;SDS011;21486;51.916;8.378;2023-09-19T02:32:29;12.10;;;2.60;;
35380;SDS011;21486;51.916;8.378;2023-09-19T02:35:01;7.05;;;2.47;;
35380;SDS011;21486;51.916;8.378;2023-09-19T02:37:27;9.43;;;2.60;;
35380;SDS011;21486;51.916;8.378;2023-09-19T02:39:53;11.07;;;2.90;;
35380;SDS011;21486;51.916;8.378;2023-09-19T02:42:18;8.27;;;2.80;;
35380;SDS011;21486;51.916;8.378;2023-09-19T02:44:44;13.32;;;2.90;;
35380;SDS011;21486;51.916;8.378;2023-09-19T02:47:11;9.32;;;2.33;;
35380;SDS011;21486;51.916;8.378;2023-09-19T02:49:37;8.90;;;2.30;;
35380;SDS011;21486;51.916;8.378;2023-09-19T02:52:03;10.17;;;2.60;;
35380;SDS011;21486;51.916;8.378;2023-09-19T02:54:29;7.18;;;2.75;;
35380;SDS011;21486;51.916;8.378;2023-09-19T02:56:54;12.43;;;2.47;;
35380;SDS011;21486;51.916;8.378;2023-09-19T02:59:20;9.25;;;2.42;;
35380;SDS011;21486;51.916;8.378;2023-09-19T03:01:46;11.60;;;3.50;;
35380;SDS011;21486;51.916;8.378;2023-09-19T03:04:13;14.82;;;2.70;;
35380;SDS011;21486;51.916;8.378;2023-09-19T03:06:40;11.50;;;2.85;;
35380;SDS011;21486;51.916;8.378;2023-09-19T03:09:05;10.83;;;2.30;;
35380;SDS011;21486;51.916;8.378;2023-09-19T03:11:37;12.95;;;3.33;;
35380;SDS011;21486;51.916;8.378;2023-09-19T03:14:05;12.95;;;2.83;;
35380;SDS011;21486;51.916;8.378;2023-09-19T03:16:30;14.43;;;2.63;;
35380;SDS011;21486;51.916;8.378;2023-09-19T03:18:56;10.63;;;3.30;;
35380;SDS011;21486;51.916;8.378;2023-09-19T03:21:23;10.43;;;2.80;;
35380;SDS011;21486;51.916;8.378;2023-09-19T03:23:49;11.33;;;2.73;;
35380;SDS011;21486;51.916;8.378;2023-09-19T03:26:14;14.70;;;3.13;;
35380;SDS011;21486;51.916;8.378;2023-09-19T03:28:41;10.52;;;2.65;;
35380;SDS011;21486;51.916;8.378;2023-09-19T03:31:07;13.95;;;2.35;;
35380;SDS011;21486;51.916;8.378;2023-09-19T03:33:33;12.17;;;2.57;;
35380;SDS011;21486;51.916;8.378;2023-09-19T03:35:59;12.63;;;2.37;;
35380;SDS011;21486;51.916;8.378;2023-09-19T03:38:26;10.35;;;2.17;;
35380;SDS011;21486;51.916;8.378;2023-09-19T03:40:53;9.52;;;2.72;;
35380;SDS011;21486;51.916;8.378;2023-09-19T03:43:18;10.07;;;2.53;;
35380;SDS011;21486;51.916;8.378;2023-09-19T03:45:44;11.90;;;2.60;;
35380;SDS011;21486;51.916;8.378;2023-09-19T03:48:11;13.38;;;3.05;;
35380;SDS011;21486;51.916;8.378;2023-09-19T03:50:37;16.20;;;2.75;;
35380;SDS011;21486;51.916;8.378;2023-09-19T03:53:03;11.97;;;2.57;;
35380;SDS011;21486;51.916;8.378;2023-09-19T03:55:29;12.83;;;3.50;;
35380;SDS011;21486;51.916;8.378;2023-09-19T03:58:00;9.75;;;2.13;;
35380;SDS011;21486;51.916;8.378;2023-09-19T04:00:28;10.52;;;2.45;;
35380;SDS011;21486;51.916;8.378;2023-09-19T04:02:54;12.60;;;2.75;;
35380;SDS011;21486;51.916;8.378;2023-09-19T04:05:21;13.90;;;2.83;;
35380;SDS011;21486;51.916;8.378;2023-09-19T04:07:47;11.55;;;2.55;;
35380;SDS011;21486;51.916;8.378;2023-09-19T04:10:13;9.35;;;2.20;;
35380;SDS011;21486;51.916;8.378;2023-09-19T04:12:39;10.00;;;2.83;;
35380;SDS011;21486;51.916;8.378;2023-09-19T04:15:05;12.50;;;2.42;;
35380;SDS011;21486;51.916;8.378;2023-09-19T04:17:32;13.20;;;3.00;;
35380;SDS011;21486;51.916;8.378;2023-09-19T04:20:00;17.13;;;2.85;;
35380;SDS011;21486;51.916;8.378;2023-09-19T04:22:26;8.47;;;2.50;;
35380;SDS011;21486;51.916;8.378;2023-09-19T04:24:51;9.93;;;2.28;;
35380;SDS011;21486;51.916;8.378;2023-09-19T04:27:17;10.63;;;2.20;;
35380;SDS011;21486;51.916;8.378;2023-09-19T04:29:43;11.25;;;2.35;;
35380;SDS011;21486;51.916;8.378;2023-09-19T04:32:09;11.15;;;2.50;;
35380;SDS011;21486;51.916;8.378;2023-09-19T04:34:35;13.75;;;3.13;;
35380;SDS011;21486;51.916;8.378;2023-09-19T04:37:01;12.60;;;3.00;;
35380;SDS011;21486;51.916;8.378;2023-09-19T04:39:27;12.40;;;2.67;;
35380;SDS011;21486;51.916;8.378;2023-09-19T04:41:53;14.15;;;2.80;;
35380;SDS011;21486;51.916;8.378;2023-09-19T04:44:19;12.45;;;2.92;;
35380;SDS011;21486;51.916;8.378;2023-09-19T04:46:46;8.05;;;2.30;;
35380;SDS011;21486;51.916;8.378;2023-09-19T04:49:12;12.98;;;2.47;;
35380;SDS011;21486;51.916;8.378;2023-09-19T04:51:37;14.38;;;2.88;;
35380;SDS011;21486;51.916;8.378;2023-09-19T04:54:04;12.88;;;3.58;;
35380;SDS011;21486;51.916;8.378;2023-09-19T04:56:30;15.40;;;2.70;;
35380;SDS011;21486;51.916;8.378;2023-09-19T04:58:57;11.45;;;2.70;;
35380;SDS011;21486;51.916;8.378;2023-09-19T05:01:25;10.18;;;2.40;;
35380;SDS011;21486;51.916;8.378;2023-09-19T05:03:51;11.70;;;2.65;;
35380;SDS011;21486;51.916;8.378;2023-09-19T05:06:18;9.63;;;2.40;;
35380;SDS011;21486;51.916;8.378;2023-09-19T05:08:46;11.10;;;2.90;;
35380;SDS011;21486;51.916;8.378;2023-09-19T05:11:15;10.20;;;2.45;;
35380;SDS011;21486;51.916;8.378;2023-09-19T05:13:40;11.17;;;2.57;;
35380;SDS011;21486;51.916;8.378;2023-09-19T05:16:06;17.80;;;3.05;;
35380;SDS011;21486;51.916;8.378;2023-09-19T05:18:35;13.88;;;2.63;;
35380;SDS011;21486;51.916;8.378;2023-09-19T05:21:02;13.70;;;3.45;;
35380;SDS011;21486;51.916;8.378;2023-09-19T05:23:28;14.10;;;2.30;;
35380;SDS011;21486;51.916;8.378;2023-09-19T05:25:53;14.88;;;2.85;;
35380;SDS011;21486;51.916;8.378;2023-09-19T05:28:19;10.25;;;2.53;;
35380;SDS011;21486;51.916;8.378;2023-09-19T05:30:45;10.75;;;2.22;;
35380;SDS011;21486;51.916;8.378;2023-09-19T05:33:12;17.48;;;3.17;;
35380;SDS011;21486;51.916;8.378;2023-09-19T05:35:38;18.30;;;2.63;;
35380;SDS011;21486;51.916;8.378;2023-09-19T05:38:06;10.83;;;2.43;;
35380;SDS011;21486;51.916;8.378;2023-09-19T05:40:34;13.90;;;2.55;;
35380;SDS011;21486;51.916;8.378;2023-09-19T05:43:00;13.68;;;2.80;;
35380;SDS011;21486;51.916;8.378;2023-09-19T05:45:27;14.85;;;2.42;;
35380;SDS011;21486;51.916;8.378;2023-09-19T05:47:53;12.20;;;2.50;;
35380;SDS011;21486;51.916;8.378;2023-09-19T05:50:29;9.95;;;2.72;;
35380;SDS011;21486;51.916;8.378;2023-09-19T05:52:54;13.65;;;2.75;;
35380;SDS011;21486;51.916;8.378;2023-09-19T05:55:23;13.85;;;3.38;;
35380;SDS011;21486;51.916;8.378;2023-09-19T05:57:53;11.10;;;2.67;;
35380;SDS011;21486;51.916;8.378;2023-09-19T06:00:23;10.03;;;2.60;;
35380;SDS011;21486;51.916;8.378;2023-09-19T06:02:53;12.25;;;2.25;;
35380;SDS011;21486;51.916;8.378;2023-09-19T06:05:23;8.23;;;2.53;;
35380;SDS011;21486;51.916;8.378;2023-09-19T06:07:51;10.23;;;2.45;;
35380;SDS011;21486;51.916;8.378;2023-09-19T06:10:18;12.10;;;2.58;;
35380;SDS011;21486;51.916;8.378;2023-09-19T06:12:45;18.13;;;2.70;;
35380;SDS011;21486;51.916;8.378;2023-09-19T06:15:12;10.43;;;2.60;;
35380;SDS011;21486;51.916;8.378;2023-09-19T06:17:41;16.58;;;2.55;;
35380;SDS011;21486;51.916;8.378;2023-09-19T06:20:08;8.15;;;2.50;;
35380;SDS011;21486;51.916;8.378;2023-09-19T06:22:43;11.00;;;2.70;;
35380;SDS011;21486;51.916;8.378;2023-09-19T06:25:10;11.20;;;2.35;;
35380;SDS011;21486;51.916;8.378;2023-09-19T06:27:37;13.75;;;2.78;;
35380;SDS011;21486;51.916;8.378;2023-09-19T06:30:04;11.37;;;2.63;;
35380;SDS011;21486;51.916;8.378;2023-09-19T06:32:31;9.70;;;2.05;;
35380;SDS011;21486;51.916;8.378;2023-09-19T06:34:57;9.68;;;2.10;;
35380;SDS011;21486;51.916;8.378;2023-09-19T06:37:26;11.07;;;2.00;;
35380;SDS011;21486;51.916;8.378;2023-09-19T06:39:52;10.52;;;1.90;;
35380;SDS011;21486;51.916;8.378;2023-09-19T06:42:18;12.83;;;2.23;;
35380;SDS011;21486;51.916;8.378;2023-09-19T06:44:44;12.60;;;2.27;;
35380;SDS011;21486;51.916;8.378;2023-09-19T06:47:10;9.80;;;2.07;;
35380;SDS011;21486;51.916;8.378;2023-09-19T06:49:35;12.13;;;2.50;;
35380;SDS011;21486;51.916;8.378;2023-09-19T06:52:01;9.02;;;2.13;;
35380;SDS011;21486;51.916;8.378;2023-09-19T06:54:27;14.40;;;2.60;;
35380;SDS011;21486;51.916;8.378;2023-09-19T06:56:56;6.10;;;2.15;;
35380;SDS011;21486;51.916;8.378;2023-09-19T06:59:23;10.88;;;2.13;;
35380;SDS011;21486;51.916;8.378;2023-09-19T07:01:49;17.30;;;2.83;;
35380;SDS011;21486;51.916;8.378;2023-09-19T07:04:16;10.30;;;2.50;;
35380;SDS011;21486;51.916;8.378;2023-09-19T07:06:41;13.00;;;2.30;;
35380;SDS011;21486;51.916;8.378;2023-09-19T07:09:07;10.88;;;2.35;;
35380;SDS011;21486;51.916;8.378;2023-09-19T07:11:33;9.23;;;2.13;;
35380;SDS011;21486;51.916;8.378;2023-09-19T07:13:59;16.07;;;2.80;;
35380;SDS011;21486;51.916;8.378;2023-09-19T07:16:28;13.98;;;2.38;;
35380;SDS011;21486;51.916;8.378;2023-09-19T07:18:55;12.80;;;2.25;;
35380;SDS011;21486;51.916;8.378;2023-09-19T07:21:21;11.32;;;2.25;;
35380;SDS011;21486;51.916;8.378;2023-09-19T07:23:47;13.20;;;2.40;;
35380;SDS011;21486;51.916;8.378;2023-09-19T07:26:13;10.50;;;2.30;;
35380;SDS011;21486;51.916;8.378;2023-09-19T07:28:38;10.32;;;2.58;;
35380;SDS011;21486;51.916;8.378;2023-09-19T07:31:04;10.00;;;2.23;;
35380;SDS011;21486;51.916;8.378;2023-09-19T07:33:32;11.32;;;2.72;;
35380;SDS011;21486;51.916;8.378;2023-09-19T07:35:57;10.85;;;2.60;;
35380;SDS011;21486;51.916;8.378;2023-09-19T07:38:23;9.02;;;1.98;;
35380;SDS011;21486;51.916;8.378;2023-09-19T07:40:49;10.32;;;2.30;;
35380;SDS011;21486;51.916;8.378;2023-09-19T07:43:15;12.38;;;2.47;;
35380;SDS011;21486;51.916;8.378;2023-09-19T07:45:41;9.47;;;2.10;;
35380;SDS011;21486;51.916;8.378;2023-09-19T07:48:06;10.30;;;2.97;;
35380;SDS011;21486;51.916;8.378;2023-09-19T07:50:39;10.23;;;2.45;;
35380;SDS011;21486;51.916;8.378;2023-09-19T07:53:05;12.25;;;2.40;;
35380;SDS011;21486;51.916;8.378;2023-09-19T07:55:31;11.85;;;2.05;;
35380;SDS011;21486;51.916;8.378;2023-09-19T07:57:58;11.40;;;2.13;;
35380;SDS011;21486;51.916;8.378;2023-09-19T08:00:24;12.83;;;2.67;;
35380;SDS011;21486;51.916;8.378;2023-09-19T08:02:50;8.52;;;2.05;;
35380;SDS011;21486;51.916;8.378;2023-09-19T08:05:17;7.93;;;1.98;;
35380;SDS011;21486;51.916;8.378;2023-09-19T08:07:44;12.55;;;2.53;;
35380;SDS011;21486;51.916;8.378;2023-09-19T08:10:13;11.03;;;2.20;;
35380;SDS011;21486;51.916;8.378;2023-09-19T08:12:41;12.73;;;2.50;;
35380;SDS011;21486;51.916;8.378;2023-09-19T08:15:13;9.00;;;2.10;;
35380;SDS011;21486;51.916;8.378;2023-09-19T08:17:44;12.77;;;2.33;;
35380;SDS011;21486;51.916;8.378;2023-09-19T08:20:11;12.63;;;2.45;;
35380;SDS011;21486;51.916;8.378;2023-09-19T08:22:51;9.80;;;1.98;;
35380;SDS011;21486;51.916;8.378;2023-09-19T08:25:17;7.10;;;2.00;;
35380;SDS011;21486;51.916;8.378;2023-09-19T08:27:47;8.82;;;2.38;;
35380;SDS011;21486;51.916;8.378;2023-09-19T08:30:18;13.57;;;2.67;;
35380;SDS011;21486;51.916;8.378;2023-09-19T08:32:48;13.90;;;2.33;;
35380;SDS011;21486;51.916;8.378;2023-09-19T08:35:14;9.70;;;2.23;;
35380;SDS011;21486;51.916;8.378;2023-09-19T08:37:40;10.33;;;2.23;;
35380;SDS011;21486;51.916;8.378;2023-09-19T08:40:07;11.50;;;2.33;;
35380;SDS011;21486;51.916;8.378;2023-09-19T08:42:54;10.45;;;2.22;;
35380;SDS011;21486;51.916;8.378;2023-09-19T08:45:21;8.43;;;1.80;;
35380;SDS011;21486;51.916;8.378;2023-09-19T08:50:57;9.73;;;2.20;;
35380;SDS011;21486;51.916;8.378;2023-09-19T08:53:36;11.23;;;2.13;;
35380;SDS011;21486;51.916;8.378;2023-09-19T08:56:13;13.27;;;2.47;;
35380;SDS011;21486;51.916;8.378;2023-09-19T08:59:02;10.10;;;2.33;;
35380;SDS011;21486;51.916;8.378;2023-09-19T09:01:37;9.40;;;2.20;;
35380;SDS011;21486;51.916;8.378;2023-09-19T09:04:04;11.40;;;2.55;;
35380;SDS011;21486;51.916;8.378;2023-09-19T09:06:38;9.25;;;2.47;;
35380;SDS011;21486;51.916;8.378;2023-09-19T09:09:05;7.88;;;2.60;;
35380;SDS011;21486;51.916;8.378;2023-09-19T09:11:32;11.90;;;2.10;;
35380;SDS011;21486;51.916;8.378;2023-09-19T09:13:58;10.38;;;2.03;;
35380;SDS011;21486;51.916;8.378;2023-09-19T09:16:24;7.53;;;2.10;;
35380;SDS011;21486;51.916;8.378;2023-09-19T09:18:51;11.32;;;2.67;;
35380;SDS011;21486;51.916;8.378;2023-09-19T09:21:17;10.85;;;2.55;;
35380;SDS011;21486;51.916;8.378;2023-09-19T09:23:43;7.50;;;2.05;;
35380;SDS011;21486;51.916;8.378;2023-09-19T09:26:09;12.35;;;2.28;;
35380;SDS011;21486;51.916;8.378;2023-09-19T09:28:35;13.70;;;2.60;;
35380;SDS011;21486;51.916;8.378;2023-09-19T09:31:03;12.90;;;2.40;;
35380;SDS011;21486;51.916;8.378;2023-09-19T09:33:37;9.77;;;2.00;;
35380;SDS011;21486;51.916;8.378;2023-09-19T09:36:04;13.52;;;2.53;;
35380;SDS011;21486;51.916;8.378;2023-09-19T09:38:47;12.02;;;2.92;;
35380;SDS011;21486;51.916;8.378;2023-09-19T09:41:20;8.43;;;2.03;;
35380;SDS011;21486;51.916;8.378;2023-09-19T09:44:11;12.05;;;2.33;;
35380;SDS011;21486;51.916;8.378;2023-09-19T09:46:46;9.05;;;2.40;;
35380;SDS011;21486;51.916;8.378;2023-09-19T09:49:22;10.80;;;2.58;;
35380;SDS011;21486;51.916;8.378;2023-09-19T09:52:01;12.60;;;2.40;;
35380;SDS011;21486;51.916;8.378;2023-09-19T09:54:32;13.65;;;2.10;;
35380;SDS011;21486;51.916;8.378;2023-09-19T09:57:02;11.40;;;2.35;;
35380;SDS011;21486;51.916;8.378;2023-09-19T09:59:49;11.52;;;3.00;;
35380;SDS011;21486;51.916;8.378;2023-09-19T10:02:27;8.30;;;2.13;;
35380;SDS011;21486;51.916;8.378;2023-09-19T10:04:57;12.55;;;2.40;;
35380;SDS011;21486;51.916;8.378;2023-09-19T10:07:50;9.85;;;2.13;;
35380;SDS011;21486;51.916;8.378;2023-09-19T10:10:33;11.82;;;2.50;;
35380;SDS011;21486;51.916;8.378;2023-09-19T10:13:05;12.52;;;2.00;;
35380;SDS011;21486;51.916;8.378;2023-09-19T10:15:33;9.15;;;2.42;;
35380;SDS011;21486;51.916;8.378;2023-09-19T10:18:03;7.57;;;2.00;;
35380;SDS011;21486;51.916;8.378;2023-09-19T10:20:30;10.30;;;1.88;;
35380;SDS011;21486;51.916;8.378;2023-09-19T10:23:00;11.35;;;2.10;;
35380;SDS011;21486;51.916;8.378;2023-09-19T10:25:34;7.75;;;2.28;;
35380;SDS011;21486;51.916;8.378;2023-09-19T10:28:01;7.68;;;1.90;;
35380;SDS011;21486;51.916;8.378;2023-09-19T10:30:31;11.32;;;2.70;;
35380;SDS011;21486;51.916;8.378;2023-09-19T10:33:02;9.03;;;2.50;;
35380;SDS011;21486;51.916;8.378;2023-09-19T10:35:29;8.67;;;2.13;;
35380;SDS011;21486;51.916;8.378;2023-09-19T10:37:56;9.13;;;2.73;;
35380;SDS011;21486;51.916;8.378;2023-09-19T10:40:24;11.23;;;2.40;;
35380;SDS011;21486;51.916;8.378;2023-09-19T10:43:03;10.00;;;2.20;;
35380;SDS011;21486;51.916;8.378;2023-09-19T10:45:34;13.98;;;2.65;;
35380;SDS011;21486;51.916;8.378;2023-09-19T10:48:03;13.60;;;3.00;;
35380;SDS011;21486;51.916;8.378;2023-09-19T10:50:31;11.67;;;2.37;;
35380;SDS011;21486;51.916;8.378;2023-09-19T10:53:02;13.43;;;2.83;;
35380;SDS011;21486;51.916;8.378;2023-09-19T10:55:33;9.80;;;1.80;;
35380;SDS011;21486;51.916;8.378;2023-09-19T10:58:00;13.63;;;2.50;;
35380;SDS011;21486;51.916;8.378;2023-09-19T11:00:28;11.50;;;2.33;;
35380;SDS011;21486;51.916;8.378;2023-09-19T11:05:40;10.80;;;2.20;;
35380;SDS011;21486;51.916;8.378;2023-09-19T11:08:10;14.40;;;2.40;;
35380;SDS011;21486;51.916;8.378;2023-09-19T11:10:46;8.25;;;2.47;;
35380;SDS011;21486;51.916;8.378;2023-09-19T11:26:42;7.40;;;2.00;;
35380;SDS011;21486;51.916;8.378;2023-09-19T11:29:27;9.10;;;1.90;;
35380;SDS011;21486;51.916;8.378;2023-09-19T11:31:55;7.78;;;1.70;;
35380;SDS011;21486;51.916;8.378;2023-09-19T11:34:54;9.25;;;1.90;;
35380;SDS011;21486;51.916;8.378;2023-09-19T11:39:40;7.10;;;2.30;;
35380;SDS011;21486;51.916;8.378;2023-09-19T11:42:44;11.70;;;2.13;;
35380;SDS011;21486;51.916;8.378;2023-09-19T11:48:11;7.65;;;2.10;;
35380;SDS011;21486;51.916;8.378;2023-09-19T11:50:41;11.55;;;2.90;;
35380;SDS011;21486;51.916;8.378;2023-09-19T11:53:10;8.38;;;2.33;;
35380;SDS011;21486;51.916;8.378;2023-09-19T11:55:37;8.45;;;2.30;;
35380;SDS011;21486;51.916;8.378;2023-09-19T11:58:03;8.47;;;2.20;;
35380;SDS011;21486;51.916;8.378;2023-09-19T12:00:32;7.18;;;2.05;;
35380;SDS011;21486;51.916;8.378;2023-09-19T12:03:01;6.57;;;1.73;;
35380;SDS011;21486;51.916;8.378;2023-09-19T12:05:33;9.77;;;1.87;;
35380;SDS011;21486;51.916;8.378;2023-09-19T12:07:58;10.43;;;2.00;;
35380;SDS011;21486;51.916;8.378;2023-09-19T12:10:24;7.80;;;2.13;;
35380;SDS011;21486;51.916;8.378;2023-09-19T12:12:50;10.15;;;2.28;;
35380;SDS011;21486;51.916;8.378;2023-09-19T12:15:23;7.53;;;2.03;;
35380;SDS011;21486;51.916;8.378;2023-09-19T12:17:53;9.10;;;2.22;;
35380;SDS011;21486;51.916;8.378;2023-09-19T12:20:19;15.07;;;2.83;;
35380;SDS011;21486;51.916;8.378;2023-09-19T12:22:46;7.97;;;2.30;;
35380;SDS011;21486;51.916;8.378;2023-09-19T12:25:12;10.52;;;2.30;;
35380;SDS011;21486;51.916;8.378;2023-09-19T12:27:43;10.38;;;2.50;;
35380;SDS011;21486;51.916;8.378;2023-09-19T12:30:11;10.73;;;2.25;;
35380;SDS011;21486;51.916;8.378;2023-09-19T12:32:43;6.65;;;2.13;;
35380;SDS011;21486;51.916;8.378;2023-09-19T12:35:09;14.43;;;2.78;;
35380;SDS011;21486;51.916;8.378;2023-09-19T12:37:42;8.05;;;2.40;;
35380;SDS011;21486;51.916;8.378;2023-09-19T12:40:18;9.20;;;2.45;;
35380;SDS011;21486;51.916;8.378;2023-09-19T12:42:52;8.07;;;1.90;;
35380;SDS011;21486;51.916;8.378;2023-09-19T12:45:23;8.87;;;2.17;;
35380;SDS011;21486;51.916;8.378;2023-09-19T12:51:05;9.50;;;2.28;;
35380;SDS011;21486;51.916;8.378;2023-09-19T12:53:42;11.70;;;2.30;;
35380;SDS011;21486;51.916;8.378;2023-09-19T12:56:10;9.80;;;2.42;;
35380;SDS011;21486;51.916;8.378;2023-09-19T13:01:26;9.32;;;1.98;;
35380;SDS011;21486;51.916;8.378;2023-09-19T13:06:44;8.40;;;1.73;;
35380;SDS011;21486;51.916;8.378;2023-09-19T13:09:16;6.43;;;1.77;;
35380;SDS011;21486;51.916;8.378;2023-09-19T13:11:45;11.15;;;2.40;;
35380;SDS011;21486;51.916;8.378;2023-09-19T13:14:20;8.25;;;1.70;;
35380;SDS011;21486;51.916;8.378;2023-09-19T13:19:34;8.98;;;1.70;;
35380;SDS011;21486;51.916;8.378;2023-09-19T13:25:10;6.25;;;1.70;;
35380;SDS011;21486;51.916;8.378;2023-09-19T13:27:50;6.13;;;1.70;;
35380;SDS011;21486;51.916;8.378;2023-09-19T13:30:21;8.32;;;1.98;;
35380;SDS011;21486;51.916;8.378;2023-09-19T13:32:50;4.88;;;2.10;;
35380;SDS011;21486;51.916;8.378;2023-09-19T13:35:16;5.78;;;1.60;;
35380;SDS011;21486;51.916;8.378;2023-09-19T13:37:42;7.53;;;1.50;;
35380;SDS011;21486;51.916;8.378;2023-09-19T13:40:11;3.97;;;1.58;;
35380;SDS011;21486;51.916;8.378;2023-09-19T13:42:38;7.85;;;1.60;;
35380;SDS011;21486;51.916;8.378;2023-09-19T13:45:05;6.03;;;1.40;;
35380;SDS011;21486;51.916;8.378;2023-09-19T13:47:31;7.43;;;1.90;;
35380;SDS011;21486;51.916;8.378;2023-09-19T13:49:57;6.30;;;1.85;;
35380;SDS011;21486;51.916;8.378;2023-09-19T13:52:23;6.47;;;1.55;;
35380;SDS011;21486;51.916;8.378;2023-09-19T13:54:53;5.43;;;1.80;;
35380;SDS011;21486;51.916;8.378;2023-09-19T13:57:19;5.97;;;1.75;;
35380;SDS011;21486;51.916;8.378;2023-09-19T13:59:44;4.28;;;1.67;;
35380;SDS011;21486;51.916;8.378;2023-09-19T14:02:10;7.50;;;1.87;;
35380;SDS011;21486;51.916;8.378;2023-09-19T14:04:35;5.43;;;1.60;;
35380;SDS011;21486;51.916;8.378;2023-09-19T14:07:01;8.47;;;2.20;;
35380;SDS011;21486;51.916;8.378;2023-09-19T14:09:28;7.13;;;1.90;;
35380;SDS011;21486;51.916;8.378;2023-09-19T14:11:54;3.60;;;1.40;;
35380;SDS011;21486;51.916;8.378;2023-09-19T14:14:19;8.38;;;1.60;;
35380;SDS011;21486;51.916;8.378;2023-09-19T14:16:45;5.67;;;1.60;;
35380;SDS011;21486;51.916;8.378;2023-09-19T14:19:12;5.90;;;1.60;;
35380;SDS011;21486;51.916;8.378;2023-09-19T14:21:38;6.28;;;1.50;;
35380;SDS011;21486;51.916;8.378;2023-09-19T14:24:04;6.63;;;1.58;;
35380;SDS011;21486;51.916;8.378;2023-09-19T14:26:34;6.13;;;1.90;;
35380;SDS011;21486;51.916;8.378;2023-09-19T14:29:00;5.60;;;1.40;;
35380;SDS011;21486;51.916;8.378;2023-09-19T14:31:26;7.87;;;2.03;;
35380;SDS011;21486;51.916;8.378;2023-09-19T14:33:55;7.80;;;1.83;;
35380;SDS011;21486;51.916;8.378;2023-09-19T14:36:24;6.50;;;2.13;;
35380;SDS011;21486;51.916;8.378;2023-09-19T14:38:52;3.70;;;1.63;;
35380;SDS011;21486;51.916;8.378;2023-09-19T14:41:22;7.28;;;2.05;;
35380;SDS011;21486;51.916;8.378;2023-09-19T14:43:50;5.97;;;1.70;;
35380;SDS011;21486;51.916;8.378;2023-09-19T14:46:16;5.55;;;1.70;;
35380;SDS011;21486;51.916;8.378;2023-09-19T14:48:43;7.60;;;1.90;;
35380;SDS011;21486;51.916;8.378;2023-09-19T14:51:09;7.53;;;2.03;;
35380;SDS011;21486;51.916;8.378;2023-09-19T14:53:37;6.75;;;1.65;;
35380;SDS011;21486;51.916;8.378;2023-09-19T14:56:03;6.03;;;1.60;;
35380;SDS011;21486;51.916;8.378;2023-09-19T14:58:30;4.53;;;2.10;;
35380;SDS011;21486;51.916;8.378;2023-09-19T15:01:03;7.85;;;2.05;;
35380;SDS011;21486;51.916;8.378;2023-09-19T15:03:32;4.83;;;1.80;;
35380;SDS011;21486;51.916;8.378;2023-09-19T15:06:03;7.13;;;2.20;;
35380;SDS011;21486;51.916;8.378;2023-09-19T15:08:30;8.18;;;1.88;;
35380;SDS011;21486;51.916;8.378;2023-09-19T15:10:56;5.90;;;1.92;;
35380;SDS011;21486;51.916;8.378;2023-09-19T15:13:23;3.60;;;1.55;;
35380;SDS011;21486;51.916;8.378;2023-09-19T15:15:58;2.73;;;1.30;;
35380;SDS011;21486;51.916;8.378;2023-09-19T15:18:24;5.18;;;1.95;;
35380;SDS011;21486;51.916;8.378;2023-09-19T15:20:50;6.30;;;1.80;;
35380;SDS011;21486;51.916;8.378;2023-09-19T15:23:15;5.70;;;1.55;;
35380;SDS011;21486;51.916;8.378;2023-09-19T15:25:47;4.43;;;1.17;;
35380;SDS011;21486;51.916;8.378;2023-09-19T15:28:16;5.32;;;1.50;;
35380;SDS011;21486;51.916;8.378;2023-09-19T15:30:42;7.38;;;1.83;;
35380;SDS011;21486;51.916;8.378;2023-09-19T15:33:07;5.40;;;1.20;;
35380;SDS011;21486;51.916;8.378;2023-09-19T15:35:33;6.45;;;1.40;;
35380;SDS011;21486;51.916;8.378;2023-09-19T15:37:58;5.57;;;1.25;;
35380;SDS011;21486;51.916;8.378;2023-09-19T15:40:25;7.47;;;1.80;;
35380;SDS011;21486;51.916;8.378;2023-09-19T15:42:52;5.70;;;1.35;;
35380;SDS011;21486;51.916;8.378;2023-09-19T15:45:19;4.17;;;1.20;;
35380;SDS011;21486;51.916;8.378;2023-09-19T15:47:45;7.53;;;1.10;;
35380;SDS011;21486;51.916;8.378;2023-09-19T15:50:10;3.53;;;0.85;;
35380;SDS011;21486;51.916;8.378;2023-09-19T15:52:38;6.18;;;1.15;;
35380;SDS011;21486;51.916;8.378;2023-09-19T15:55:05;2.88;;;0.90;;
35380;SDS011;21486;51.916;8.378;2023-09-19T15:57:32;3.67;;;1.00;;
35380;SDS011;21486;51.916;8.378;2023-09-19T15:59:59;3.15;;;1.02;;
35380;SDS011;21486;51.916;8.378;2023-09-19T16:02:24;4.60;;;0.95;;
35380;SDS011;21486;51.916;8.378;2023-09-19T16:04:51;2.40;;;0.90;;
35380;SDS011;21486;51.916;8.378;2023-09-19T16:07:19;3.85;;;1.30;;
35380;SDS011;21486;51.916;8.378;2023-09-19T16:09:44;4.80;;;1.15;;
35380;SDS011;21486;51.916;8.378;2023-09-19T16:12:10;2.43;;;0.90;;
35380;SDS011;21486;51.916;8.378;2023-09-19T16:14:36;3.80;;;1.30;;